Time;durP1;ratioP1;P1;durP2;ratioP2;P2;SDS_P1;SDS_P2;PMS_P1;PMS_P2;Temp;Humidity;BMP_temperature;BMP_pressure;BME280_temperature;BME280_humidity;BME280_pressure;Samples;Min_cycle;Max_cycle;Signal;HPM_P1;HPM_P2
2022/01/20 00:03:32;;;;;;;18.83;3.40;;;4.70;89.10;;;;;;5130160;27;20055;-70
2022/01/20 00:27:34;;;;;;;15.23;2.50;;;5.10;87.20;;;;;;5128730;27;20076;-70
2022/01/20 00:30:26;;;;;;;12.85;2.60;;;5.10;87.20;;;;;;5127506;27;20038;-70
2022/01/20 00:33:03;;;;;;;14.68;2.80;;;5.20;87.30;;;;;;5090681;28;20048;-70
2022/01/20 00:37:15;;;;;;;9.95;2.10;;;5.10;87.50;;;;;;5111104;27;20039;-70
2022/01/20 00:38:17;;;;;;;10.25;2.40;;;5.30;87.40;;;;;;5136404;27;20055;-70
2022/01/20 00:40:43;;;;;;;13.60;2.78;;;5.40;87.20;;;;;;5127129;28;20051;-70
2022/01/20 00:43:09;;;;;;;15.95;2.25;;;5.40;87.30;;;;;;5097313;28;20055;-71
2022/01/20 00:45:34;;;;;;;6.72;2.22;;;5.30;87.70;;;;;;5085880;28;20031;-70
2022/01/20 00:48:00;;;;;;;12.52;2.33;;;5.20;87.30;;;;;;5109684;28;20046;-70
2022/01/20 00:50:26;;;;;;;5.07;1.52;;;5.10;86.80;;;;;;5122317;28;20096;-70
2022/01/20 00:52:52;;;;;;;5.43;1.85;;;5.00;86.70;;;;;;5128045;28;20069;-70
2022/01/20 00:55:18;;;;;;;4.97;1.73;;;5.00;86.80;;;;;;5128023;28;20031;-70
2022/01/20 00:57:44;;;;;;;9.50;1.65;;;4.90;86.70;;;;;;5120430;28;20050;-70
2022/01/20 01:00:11;;;;;;;8.20;1.83;;;4.90;86.60;;;;;;5126658;28;20434;-70
2022/01/20 01:02:37;;;;;;;6.50;1.83;;;4.90;86.90;;;;;;5115101;28;20103;-69
2022/01/20 01:05:04;;;;;;;6.63;1.90;;;4.80;86.90;;;;;;5101685;28;20047;-70
2022/01/20 01:09:59;;;;;;;5.97;1.60;;;4.80;87.10;;;;;;5119506;28;20055;-70
2022/01/20 01:12:42;;;;;;;8.18;1.83;;;4.70;87.20;;;;;;5135566;27;20054;-70
2022/01/20 01:15:14;;;;;;;9.27;1.92;;;4.70;87.10;;;;;;5153355;27;20075;-70
2022/01/20 01:20:26;;;;;;;11.02;3.00;;;4.70;87.00;;;;;;5104623;28;20047;-70
2022/01/20 01:22:52;;;;;;;13.57;4.03;;;4.80;87.10;;;;;;5129128;28;20043;-70
2022/01/20 01:25:18;;;;;;;16.05;2.65;;;4.70;87.00;;;;;;5128919;28;20550;-70
2022/01/20 01:27:45;;;;;;;8.27;1.90;;;4.70;87.00;;;;;;5127005;27;20486;-71
2022/01/20 01:30:26;;;;;;;12.77;2.30;;;4.80;87.00;;;;;;5124426;27;20046;-70
2022/01/20 01:32:54;;;;;;;10.43;4.35;;;4.80;87.20;;;;;;5132717;27;20051;-70
2022/01/20 01:35:22;;;;;;;18.58;3.05;;;4.90;87.40;;;;;;5133583;27;20452;-71
2022/01/20 01:40:33;;;;;;;17.20;2.10;;;5.20;87.10;;;;;;5115525;27;20043;-72
2022/01/20 01:43:03;;;;;;;5.63;1.52;;;5.10;86.40;;;;;;5113910;27;20047;-71
2022/01/20 01:45:34;;;;;;;3.95;1.40;;;4.90;86.20;;;;;;5133537;27;20054;-71
2022/01/20 01:48:01;;;;;;;7.15;1.50;;;4.90;85.90;;;;;;5113803;27;20043;-71
2022/01/20 01:50:27;;;;;;;9.02;1.55;;;4.80;84.70;;;;;;5133506;27;20042;-71
2022/01/20 01:52:55;;;;;;;5.47;1.60;;;4.90;84.50;;;;;;5114223;27;20043;-71
2022/01/20 01:55:21;;;;;;;6.50;1.67;;;4.70;85.20;;;;;;5133330;27;20043;-71
2022/01/20 01:57:47;;;;;;;4.82;1.42;;;4.80;85.20;;;;;;5114170;27;21723;-71
2022/01/20 02:00:14;;;;;;;10.63;2.38;;;4.80;85.20;;;;;;5133559;27;20041;-71
2022/01/20 02:02:42;;;;;;;11.50;2.33;;;4.80;85.40;;;;;;5132673;27;20074;-71
2022/01/20 02:05:11;;;;;;;14.38;4.43;;;4.80;85.70;;;;;;5133241;27;20038;-71
2022/01/20 02:18:55;;;;;;;12.75;2.70;;;5.00;85.80;;;;;;5112006;28;20043;-71
2022/01/20 02:21:21;;;;;;;11.00;2.38;;;5.00;84.80;;;;;;5129969;27;20095;-71
2022/01/20 02:23:47;;;;;;;11.38;2.90;;;5.00;85.30;;;;;;5114415;27;20043;-71
2022/01/20 02:26:13;;;;;;;13.32;2.88;;;5.00;85.40;;;;;;5131775;27;20698;-71
2022/01/20 02:28:39;;;;;;;14.23;4.03;;;5.20;85.50;;;;;;5128058;27;20046;-71
2022/01/20 02:31:05;;;;;;;11.88;2.42;;;5.30;84.40;;;;;;5131978;27;20031;-71
2022/01/20 02:33:31;;;;;;;13.75;2.67;;;5.10;84.20;;;;;;5132836;27;20123;-71
2022/01/20 02:36:03;;;;;;;20.77;3.55;;;5.00;84.60;;;;;;5131961;27;20051;-71
2022/01/20 02:39:27;;;;;;;20.23;2.75;;;4.90;84.80;;;;;;5132855;27;20087;-71
2022/01/20 02:46:50;;;;;;;24.10;3.67;;;4.80;85.00;;;;;;5090502;27;20392;-71
2022/01/20 02:49:17;;;;;;;19.42;3.08;;;4.80;85.20;;;;;;5130962;27;20042;-71
2022/01/20 02:51:52;;;;;;;20.48;4.68;;;4.90;85.20;;;;;;5113637;27;20380;-71
2022/01/20 02:54:18;;;;;;;16.08;4.32;;;4.80;85.50;;;;;;5130714;27;20058;-71
2022/01/20 02:56:44;;;;;;;22.60;3.75;;;4.90;85.30;;;;;;5113261;27;20044;-70
2022/01/20 02:59:10;;;;;;;18.52;3.80;;;4.90;84.60;;;;;;5130782;27;20345;-71
2022/01/20 03:01:35;;;;;;;28.77;3.90;;;4.90;81.40;;;;;;5131518;27;20036;-71
2022/01/20 03:04:03;;;;;;;14.48;2.95;;;5.10;78.20;;;;;;5131537;27;20089;-70
2022/01/20 03:06:28;;;;;;;23.67;3.75;;;5.30;73.30;;;;;;5113422;27;20411;-71
2022/01/20 03:08:54;;;;;;;17.75;3.83;;;5.20;72.80;;;;;;5130996;27;20051;-70
2022/01/20 03:11:20;;;;;;;19.10;2.58;;;5.10;73.10;;;;;;5131011;27;20527;-70
2022/01/20 03:13:45;;;;;;;23.83;2.80;;;5.10;72.90;;;;;;5130655;27;20053;-70
2022/01/20 03:16:11;;;;;;;25.02;3.00;;;5.00;72.60;;;;;;5131448;27;20050;-70
2022/01/20 03:18:36;;;;;;;17.48;2.47;;;4.90;73.80;;;;;;5130847;27;20042;-70
2022/01/20 03:21:03;;;;;;;17.85;2.67;;;4.90;73.30;;;;;;5130891;27;20064;-70
2022/01/20 03:23:28;;;;;;;17.17;4.32;;;4.90;72.40;;;;;;5113242;27;20496;-70
2022/01/20 03:25:54;;;;;;;14.10;1.92;;;4.90;70.50;;;;;;5111832;27;20043;-70
2022/01/20 03:28:20;;;;;;;15.55;2.10;;;4.80;70.40;;;;;;5131008;27;20047;-70
2022/01/20 03:30:45;;;;;;;18.20;2.90;;;4.80;70.00;;;;;;5129453;27;20043;-70
2022/01/20 03:33:11;;;;;;;25.58;3.63;;;4.80;70.70;;;;;;5131057;27;20183;-71
2022/01/20 03:35:37;;;;;;;30.50;3.83;;;4.90;70.80;;;;;;5131546;27;20042;-70
2022/01/20 03:38:03;;;;;;;23.65;3.10;;;4.90;72.40;;;;;;5129441;27;20121;-70
2022/01/20 03:40:28;;;;;;;27.00;5.05;;;4.80;73.10;;;;;;5095529;27;20043;-71
2022/01/20 03:42:54;;;;;;;26.00;4.25;;;4.90;73.50;;;;;;5130763;27;20038;-70
2022/01/20 03:45:24;;;;;;;23.65;3.38;;;5.00;73.30;;;;;;5130113;27;20043;-71
2022/01/20 03:47:51;;;;;;;22.65;4.75;;;5.00;74.20;;;;;;5130188;27;20054;-70
2022/01/20 03:53:01;;;;;;;17.10;2.95;;;5.00;74.30;;;;;;5130643;27;20396;-70
2022/01/20 03:55:27;;;;;;;24.30;3.58;;;5.00;74.10;;;;;;5130604;27;20042;-70
2022/01/20 03:57:52;;;;;;;27.88;4.13;;;5.00;73.90;;;;;;5130486;27;20508;-70
2022/01/20 04:00:18;;;;;;;23.23;4.40;;;5.00;74.20;;;;;;5111912;27;20047;-70
2022/01/20 04:02:43;;;;;;;19.98;2.85;;;4.80;74.30;;;;;;5130821;27;20039;-70
2022/01/20 04:05:09;;;;;;;19.63;4.03;;;4.80;74.60;;;;;;5129662;27;20092;-70
2022/01/20 04:07:35;;;;;;;15.15;3.28;;;4.80;74.90;;;;;;5129973;27;20051;-70
2022/01/20 04:10:00;;;;;;;20.50;3.00;;;4.70;75.80;;;;;;5130605;27;20103;-70
2022/01/20 04:12:26;;;;;;;15.98;2.10;;;5.00;74.90;;;;;;5111990;27;20138;-70
2022/01/20 04:14:51;;;;;;;11.07;2.40;;;4.80;73.70;;;;;;5129772;27;20051;-70
2022/01/20 04:17:19;;;;;;;14.20;2.13;;;4.70;73.60;;;;;;5129683;27;20042;-70
2022/01/20 04:19:46;;;;;;;13.20;1.95;;;4.60;73.90;;;;;;5130554;27;20526;-70
2022/01/20 04:22:12;;;;;;;10.18;1.83;;;4.50;73.40;;;;;;5129632;27;20131;-71
2022/01/20 04:24:37;;;;;;;22.13;5.75;;;4.50;74.00;;;;;;5130620;27;20421;-70
2022/01/20 04:27:04;;;;;;;8.95;1.85;;;4.40;73.80;;;;;;5130038;27;20051;-70
2022/01/20 04:29:29;;;;;;;13.13;2.00;;;4.30;74.20;;;;;;5130016;27;20114;-71
2022/01/20 04:31:55;;;;;;;18.17;2.47;;;4.20;74.10;;;;;;5110650;27;20043;-70
2022/01/20 04:34:21;;;;;;;19.35;2.10;;;4.20;74.70;;;;;;5129762;27;20046;-70
2022/01/20 04:36:50;;;;;;;13.52;2.35;;;4.30;74.60;;;;;;5129701;27;20060;-70
2022/01/20 04:39:20;;;;;;;15.93;3.30;;;4.40;74.70;;;;;;5129450;27;20074;-70
2022/01/20 04:41:47;;;;;;;25.70;4.85;;;4.60;74.90;;;;;;5129721;27;20047;-70
2022/01/20 04:45:02;;;;;;;22.50;3.47;;;4.50;76.20;;;;;;5130415;27;20051;-70
2022/01/20 04:47:51;;;;;;;19.20;3.03;;;4.40;77.00;;;;;;5118155;28;20047;-70
2022/01/20 04:57:57;;;;;;;14.98;2.78;;;3.90;79.30;;;;;;5118938;28;20039;-71
2022/01/20 05:00:23;;;;;;;21.98;3.13;;;3.90;79.10;;;;;;5128843;28;20080;-70
2022/01/20 05:02:49;;;;;;;18.10;2.60;;;3.90;79.10;;;;;;5110687;27;20052;-70
2022/01/20 05:05:14;;;;;;;19.45;4.80;;;3.80;78.50;;;;;;5133738;27;20080;-70
2022/01/20 05:07:40;;;;;;;14.07;2.35;;;3.70;78.60;;;;;;5134505;27;20706;-70
2022/01/20 05:10:10;;;;;;;16.73;2.15;;;3.70;78.20;;;;;;5133943;27;20043;-70
2022/01/20 05:13:03;;;;;;;20.02;6.03;;;3.70;78.40;;;;;;5133462;27;20047;-70
2022/01/20 05:15:23;;;;;;;13.38;3.10;;;3.70;78.30;;;;;;5132737;27;20050;-71
2022/01/20 05:17:49;;;;;;;12.40;3.00;;;3.90;78.20;;;;;;5093655;27;20042;-70
2022/01/20 05:20:15;;;;;;;17.08;2.00;;;4.20;78.20;;;;;;5122245;27;20035;-70
2022/01/20 05:22:41;;;;;;;13.63;1.98;;;3.70;80.50;;;;;;5131058;27;20085;-68
2022/01/20 05:25:07;;;;;;;13.02;4.18;;;3.60;79.70;;;;;;5106024;27;20039;-70
2022/01/20 05:27:32;;;;;;;19.10;2.13;;;3.50;80.30;;;;;;5131362;27;20095;-70
2022/01/20 05:29:58;;;;;;;18.98;2.85;;;3.50;80.00;;;;;;5127530;27;20488;-70
2022/01/20 05:32:24;;;;;;;19.00;4.40;;;3.60;80.30;;;;;;5091151;28;20044;-70
2022/01/20 05:34:50;;;;;;;17.85;3.15;;;3.50;80.70;;;;;;5121261;27;20499;-70
2022/01/20 05:37:16;;;;;;;12.95;2.42;;;3.50;81.10;;;;;;5132517;27;20046;-70
2022/01/20 05:39:42;;;;;;;16.92;1.90;;;3.50;81.20;;;;;;5130811;27;20263;-70
2022/01/20 05:42:08;;;;;;;13.40;3.33;;;3.40;80.90;;;;;;5112939;28;20040;-70
2022/01/20 05:44:34;;;;;;;9.77;1.67;;;3.40;81.20;;;;;;5106010;27;20414;-70
2022/01/20 05:47:05;;;;;;;14.07;2.38;;;3.40;80.60;;;;;;5130445;27;20050;-70
2022/01/20 05:49:31;;;;;;;13.57;2.88;;;3.40;80.40;;;;;;5119713;27;20043;-70
2022/01/20 05:51:57;;;;;;;14.43;2.60;;;3.30;80.10;;;;;;5101431;28;20039;-70
2022/01/20 05:54:23;;;;;;;13.68;4.40;;;3.40;80.30;;;;;;5106455;27;20094;-70
2022/01/20 05:56:49;;;;;;;18.10;2.95;;;3.30;80.30;;;;;;5110932;27;20129;-70
2022/01/20 05:59:15;;;;;;;17.50;3.30;;;3.40;80.40;;;;;;5089707;27;20047;-70
2022/01/20 06:01:41;;;;;;;16.08;2.88;;;3.40;81.60;;;;;;5129101;27;20047;-70
2022/01/20 06:04:09;;;;;;;11.05;2.53;;;3.40;81.40;;;;;;5130801;27;20039;-70
2022/01/20 06:06:35;;;;;;;18.35;2.70;;;3.20;81.30;;;;;;5128724;27;20041;-70
2022/01/20 06:09:05;;;;;;;12.50;2.13;;;3.00;81.70;;;;;;5132560;27;20080;-71
2022/01/20 06:11:32;;;;;;;15.80;3.97;;;3.00;82.00;;;;;;5097396;27;20054;-70
2022/01/20 06:13:57;;;;;;;8.63;1.60;;;3.00;82.00;;;;;;5132698;27;20099;-71
2022/01/20 06:16:23;;;;;;;16.50;2.25;;;3.10;81.60;;;;;;5129717;27;20039;-71
2022/01/20 06:18:50;;;;;;;10.85;1.75;;;3.00;80.30;;;;;;5132676;27;20027;-70
2022/01/20 06:21:17;;;;;;;13.70;1.80;;;3.10;80.90;;;;;;5132779;27;20131;-71
2022/01/20 06:23:42;;;;;;;6.55;1.85;;;3.10;80.50;;;;;;5132666;27;20116;-71
2022/01/20 06:26:08;;;;;;;22.60;4.40;;;3.10;80.60;;;;;;5113338;27;20067;-71
2022/01/20 06:28:36;;;;;;;12.75;2.00;;;3.20;80.40;;;;;;5118625;27;20035;-70
2022/01/20 06:31:02;;;;;;;16.80;3.25;;;3.20;79.80;;;;;;5115860;27;20051;-71
2022/01/20 06:33:28;;;;;;;18.73;2.60;;;3.50;79.30;;;;;;5131886;27;20084;-69
2022/01/20 06:35:54;;;;;;;14.18;2.85;;;3.50;79.20;;;;;;5132617;27;20682;-70
2022/01/20 06:38:20;;;;;;;18.75;3.25;;;3.60;79.10;;;;;;5114579;27;20495;-70
2022/01/20 06:40:46;;;;;;;16.58;2.25;;;3.60;78.40;;;;;;5131740;27;20050;-70
2022/01/20 06:43:12;;;;;;;9.68;2.30;;;3.70;78.00;;;;;;5113501;27;20479;-70
2022/01/20 06:45:37;;;;;;;18.75;2.83;;;3.70;76.80;;;;;;5112297;27;20134;-70
2022/01/20 06:48:03;;;;;;;13.98;2.42;;;3.70;75.50;;;;;;5127358;27;20175;-70
2022/01/20 06:50:29;;;;;;;14.82;2.20;;;3.70;76.10;;;;;;5126310;27;20126;-71
2022/01/20 06:52:55;;;;;;;18.40;3.83;;;3.90;76.00;;;;;;5121841;27;20099;-70
2022/01/20 06:55:21;;;;;;;21.95;4.10;;;3.80;79.00;;;;;;5104049;27;20059;-70
2022/01/20 06:57:47;;;;;;;15.18;3.58;;;3.90;79.40;;;;;;5093240;27;20078;-70
2022/01/20 07:00:20;;;;;;;12.73;1.83;;;3.90;79.70;;;;;;5122718;27;20071;-70
2022/01/20 07:02:47;;;;;;;12.70;2.97;;;3.90;79.70;;;;;;5124348;27;20065;-69
2022/01/20 07:05:16;;;;;;;21.00;3.25;;;3.60;80.00;;;;;;5121580;27;20090;-70
2022/01/20 07:07:42;;;;;;;21.00;3.80;;;3.50;80.10;;;;;;5095400;27;20526;-69
2022/01/20 07:10:11;;;;;;;14.93;2.60;;;3.50;80.70;;;;;;5119495;27;20031;-69
2022/01/20 07:12:37;;;;;;;14.27;3.47;;;3.50;80.60;;;;;;5129355;27;20039;-66
2022/01/20 07:15:03;;;;;;;18.70;2.80;;;3.40;80.90;;;;;;5125392;27;20504;-63
2022/01/20 07:17:28;;;;;;;24.38;3.05;;;3.60;81.80;;;;;;5116745;27;20035;-69
2022/01/20 07:19:54;;;;;;;28.30;7.53;;;3.60;81.00;;;;;;5111611;27;20464;-69
2022/01/20 07:22:20;;;;;;;26.50;4.63;;;3.60;80.60;;;;;;5074471;27;20349;-69
2022/01/20 07:24:47;;;;;;;21.73;3.03;;;3.50;80.70;;;;;;5123038;27;20507;-69
2022/01/20 07:27:13;;;;;;;19.90;4.03;;;3.40;80.50;;;;;;5123493;27;20066;-69
2022/01/20 07:29:39;;;;;;;20.90;3.05;;;3.40;80.20;;;;;;5104174;27;20043;-70
2022/01/20 07:32:06;;;;;;;17.02;3.38;;;3.50;80.40;;;;;;5128851;27;20498;-69
2022/01/20 07:34:33;;;;;;;23.25;3.65;;;3.40;79.90;;;;;;5124881;27;20043;-69
2022/01/20 07:37:00;;;;;;;22.60;5.20;;;3.40;79.10;;;;;;5111831;27;20082;-69
2022/01/20 07:39:25;;;;;;;19.02;2.22;;;3.50;79.10;;;;;;5123217;27;20050;-69
2022/01/20 07:41:51;;;;;;;19.10;2.90;;;3.50;79.00;;;;;;5115922;27;20035;-69
2022/01/20 07:44:17;;;;;;;29.13;3.58;;;3.60;78.80;;;;;;5117883;27;20172;-69
2022/01/20 07:46:43;;;;;;;22.55;3.15;;;3.80;78.50;;;;;;5124562;27;20047;-69
2022/01/20 07:49:09;;;;;;;20.45;4.45;;;3.80;77.10;;;;;;5123616;27;20532;-69
2022/01/20 07:51:35;;;;;;;21.80;3.28;;;4.00;77.60;;;;;;5116907;27;20040;-65
2022/01/20 07:54:01;;;;;;;24.73;4.13;;;4.10;77.00;;;;;;5122838;27;20038;-66
2022/01/20 07:56:26;;;;;;;17.33;3.10;;;4.10;77.00;;;;;;5124420;27;20696;-65
2022/01/20 07:58:52;;;;;;;35.75;4.80;;;4.10;75.70;;;;;;5128403;27;20054;-66
2022/01/20 08:01:18;;;;;;;15.50;3.13;;;4.10;75.70;;;;;;5128872;27;20039;-66
2022/01/20 08:03:43;;;;;;;20.85;4.50;;;4.10;76.00;;;;;;5107976;27;20414;-65
2022/01/20 08:06:09;;;;;;;14.93;3.60;;;4.30;75.80;;;;;;5128647;27;20043;-66
2022/01/20 08:08:34;;;;;;;16.92;2.00;;;4.30;75.30;;;;;;5128304;27;20042;-65
2022/01/20 08:11:00;;;;;;;12.75;2.22;;;4.20;75.80;;;;;;5123539;27;21812;-67
2022/01/20 08:13:26;;;;;;;15.77;2.45;;;4.00;76.00;;;;;;5125333;27;20432;-66
2022/01/20 08:15:52;;;;;;;13.65;2.65;;;3.80;76.70;;;;;;5127477;27;20043;-66
2022/01/20 08:18:17;;;;;;;10.05;1.63;;;3.70;76.40;;;;;;5128188;27;20061;-66
2022/01/20 08:20:43;;;;;;;11.85;2.45;;;3.60;76.20;;;;;;5120932;27;20058;-66
2022/01/20 08:23:08;;;;;;;15.15;3.28;;;3.70;75.50;;;;;;5129010;27;20047;-66
2022/01/20 08:25:34;;;;;;;13.38;2.83;;;3.60;75.30;;;;;;5127829;27;20122;-69
2022/01/20 08:28:00;;;;;;;15.50;2.10;;;3.60;75.40;;;;;;5109110;28;20129;-65
2022/01/20 08:30:26;;;;;;;11.38;2.35;;;3.60;76.00;;;;;;5129360;27;20127;-66
2022/01/20 08:32:52;;;;;;;12.20;2.97;;;3.70;76.40;;;;;;5126889;27;20043;-66
2022/01/20 08:35:20;;;;;;;19.02;3.67;;;3.70;76.70;;;;;;5123962;27;20104;-66
2022/01/20 08:37:46;;;;;;;11.55;1.92;;;3.80;76.30;;;;;;5119396;27;20043;-66
2022/01/20 08:40:15;;;;;;;18.98;2.22;;;3.80;76.50;;;;;;5127770;27;20403;-66
2022/01/20 08:42:43;;;;;;;12.55;3.22;;;4.00;74.70;;;;;;5125425;27;20035;-67
2022/01/20 08:45:10;;;;;;;13.35;2.38;;;4.00;74.80;;;;;;5128735;28;20055;-67
2022/01/20 08:47:36;;;;;;;24.38;3.85;;;4.00;73.90;;;;;;5129051;28;20035;-67
2022/01/20 08:50:05;;;;;;;18.15;3.40;;;4.10;74.50;;;;;;5127594;28;20372;-65
2022/01/20 08:52:31;;;;;;;21.05;3.55;;;4.10;74.00;;;;;;5129436;28;20066;-64
2022/01/20 08:54:58;;;;;;;18.85;2.53;;;4.20;73.80;;;;;;5129115;28;20067;-65
2022/01/20 08:57:25;;;;;;;23.25;2.63;;;4.20;74.30;;;;;;5109992;28;20054;-65
2022/01/20 08:59:51;;;;;;;19.98;4.35;;;4.10;75.20;;;;;;5126912;28;20088;-65
2022/01/20 09:02:17;;;;;;;16.67;3.33;;;4.20;75.50;;;;;;5109880;28;20047;-65
2022/01/20 09:04:43;;;;;;;23.55;3.58;;;4.30;75.70;;;;;;5127396;28;20032;-65
2022/01/20 09:07:09;;;;;;;13.80;2.15;;;4.30;76.70;;;;;;5128282;28;20042;-65
2022/01/20 09:09:40;;;;;;;24.90;2.78;;;4.20;77.40;;;;;;5129437;28;20659;-65
2022/01/20 09:17:25;;;;;;;14.98;3.58;;;4.10;78.60;;;;;;5109209;28;20047;-65
2022/01/20 09:19:51;;;;;;;14.90;3.35;;;4.10;78.60;;;;;;5127187;28;20081;-65
2022/01/20 09:22:18;;;;;;;17.48;1.83;;;4.10;78.20;;;;;;5123854;28;20070;-65
2022/01/20 09:24:45;;;;;;;12.85;2.05;;;4.20;77.60;;;;;;5126520;28;20050;-64
2022/01/20 09:27:11;;;;;;;8.85;1.65;;;4.10;77.60;;;;;;5128074;28;20087;-63
2022/01/20 09:29:37;;;;;;;13.43;2.03;;;4.10;77.10;;;;;;5121087;28;20093;-63
2022/01/20 09:32:06;;;;;;;11.82;2.03;;;4.10;77.20;;;;;;5124302;28;20035;-63
2022/01/20 09:34:32;;;;;;;12.82;2.53;;;4.10;76.40;;;;;;5117898;28;20039;-64
2022/01/20 09:36:57;;;;;;;11.15;2.03;;;4.10;77.20;;;;;;5126311;28;20039;-63
2022/01/20 09:39:23;;;;;;;17.45;3.33;;;4.10;76.80;;;;;;5126851;28;20461;-64
2022/01/20 09:41:49;;;;;;;15.55;2.97;;;4.30;76.70;;;;;;5125087;28;20031;-64
2022/01/20 09:44:15;;;;;;;14.73;2.40;;;4.20;75.70;;;;;;5123321;28;21078;-64
2022/01/20 09:46:41;;;;;;;13.18;2.75;;;4.30;75.70;;;;;;5125730;28;20487;-64
2022/01/20 09:49:09;;;;;;;16.23;2.63;;;4.50;74.40;;;;;;5126952;27;21455;-64
2022/01/20 09:51:35;;;;;;;13.18;3.58;;;4.50;74.70;;;;;;5128142;27;20047;-63
2022/01/20 09:54:00;;;;;;;14.75;3.95;;;4.60;74.40;;;;;;5112043;27;20043;-64
2022/01/20 09:56:26;;;;;;;18.40;4.78;;;4.70;74.50;;;;;;5128028;27;20035;-64
2022/01/20 09:58:52;;;;;;;16.42;2.53;;;4.60;75.30;;;;;;5132054;27;20563;-64
2022/01/20 10:01:50;;;;;;;15.38;2.72;;;4.60;76.00;;;;;;5130309;27;20101;-66
2022/01/20 10:04:29;;;;;;;19.40;2.85;;;4.70;76.20;;;;;;5124996;27;20047;-64
2022/01/20 10:07:04;;;;;;;21.48;3.63;;;4.50;77.10;;;;;;5107427;27;20517;-65
2022/01/20 10:09:37;;;;;;;14.20;2.50;;;4.40;77.70;;;;;;5111564;27;20454;-64
2022/01/20 10:12:04;;;;;;;14.48;2.88;;;4.50;78.30;;;;;;5131071;27;20055;-64
2022/01/20 10:14:44;;;;;;;16.63;2.53;;;4.40;78.70;;;;;;5129332;27;20056;-64
2022/01/20 10:17:23;;;;;;;16.40;3.55;;;4.40;79.40;;;;;;5125872;27;20074;-64
2022/01/20 10:19:54;;;;;;;15.40;3.42;;;4.30;80.00;;;;;;5124496;27;20043;-64
2022/01/20 10:22:23;;;;;;;16.75;2.70;;;4.40;79.70;;;;;;5128493;27;20058;-64
2022/01/20 10:25:08;;;;;;;18.73;3.28;;;4.40;79.40;;;;;;5108494;27;20053;-65
2022/01/20 10:27:46;;;;;;;15.52;2.58;;;4.40;79.70;;;;;;5121127;27;20075;-65
2022/01/20 10:30:11;;;;;;;17.38;3.45;;;4.50;79.50;;;;;;5127278;27;20048;-64
2022/01/20 10:32:42;;;;;;;15.80;2.75;;;4.50;80.00;;;;;;5124489;27;20095;-64
2022/01/20 10:35:11;;;;;;;12.35;2.90;;;4.60;79.80;;;;;;5125872;27;20039;-64
2022/01/20 10:37:52;;;;;;;16.75;3.45;;;4.80;79.30;;;;;;5107274;27;20054;-64
2022/01/20 10:40:18;;;;;;;20.63;3.53;;;4.80;78.60;;;;;;5126508;27;20039;-63
2022/01/20 10:42:46;;;;;;;29.92;5.45;;;4.80;77.90;;;;;;5129812;27;20054;-64
2022/01/20 10:45:27;;;;;;;21.05;3.30;;;4.70;78.40;;;;;;5127133;27;20050;-63
2022/01/20 10:47:58;;;;;;;26.88;4.43;;;4.70;78.80;;;;;;5125968;27;20499;-63
2022/01/20 10:50:27;;;;;;;27.10;3.83;;;4.90;78.50;;;;;;5124599;27;20043;-64
2022/01/20 10:52:53;;;;;;;25.23;4.88;;;4.90;77.90;;;;;;5130295;27;20039;-64
2022/01/20 10:55:24;;;;;;;19.45;2.88;;;5.00;77.90;;;;;;5130475;27;20133;-64
2022/01/20 10:57:54;;;;;;;18.27;3.50;;;5.20;77.50;;;;;;5127159;27;20048;-63
2022/01/20 11:00:23;;;;;;;17.20;3.47;;;5.20;77.00;;;;;;5125029;27;20557;-63
2022/01/20 11:03:06;;;;;;;15.35;1.92;;;5.20;76.10;;;;;;5128108;27;20035;-65
2022/01/20 11:05:33;;;;;;;19.13;3.05;;;5.20;76.00;;;;;;5125641;27;20441;-65
2022/01/20 11:08:00;;;;;;;10.68;3.28;;;4.80;76.80;;;;;;5129019;27;20491;-65
2022/01/20 11:10:25;;;;;;;14.88;3.28;;;4.40;78.50;;;;;;5130166;27;20050;-65
2022/01/20 11:12:51;;;;;;;16.08;3.80;;;4.40;79.20;;;;;;5128826;27;20433;-65
2022/01/20 11:15:20;;;;;;;21.48;3.30;;;4.40;79.30;;;;;;5127022;27;20079;-65
2022/01/20 11:17:52;;;;;;;26.42;3.47;;;4.40;78.90;;;;;;5127283;27;20035;-65
2022/01/20 11:20:21;;;;;;;22.55;2.65;;;4.50;78.00;;;;;;5115621;27;20038;-65
2022/01/20 11:23:02;;;;;;;16.27;2.88;;;4.80;77.60;;;;;;5125271;27;20045;-65
2022/01/20 11:25:30;;;;;;;14.88;3.13;;;4.80;80.10;;;;;;5111838;27;20530;-64
2022/01/20 11:28:16;;;;;;;14.95;2.28;;;4.70;80.90;;;;;;5119993;27;20119;-63
2022/01/20 11:30:55;;;;;;;23.60;4.68;;;4.50;81.50;;;;;;5087758;27;20054;-66
2022/01/20 11:33:35;;;;;;;17.48;2.30;;;4.40;81.30;;;;;;5128528;27;20077;-65
2022/01/20 11:36:02;;;;;;;10.50;2.10;;;4.40;80.80;;;;;;5112143;27;20482;-66
2022/01/20 11:38:46;;;;;;;13.73;2.38;;;4.40;80.30;;;;;;5128979;27;20062;-64
2022/01/20 11:41:14;;;;;;;10.75;3.03;;;4.40;79.50;;;;;;5122404;27;20054;-63
2022/01/20 11:43:43;;;;;;;9.77;1.90;;;4.50;78.40;;;;;;5125939;27;20031;-63
2022/01/20 11:46:15;;;;;;;16.27;3.03;;;4.30;78.30;;;;;;5126694;27;20167;-63
2022/01/20 11:48:58;;;;;;;18.23;2.80;;;4.40;78.70;;;;;;5129642;27;20553;-63
2022/01/20 11:51:49;;;;;;;14.82;2.03;;;4.50;78.50;;;;;;5124305;27;20043;-63
2022/01/20 11:54:27;;;;;;;16.85;3.25;;;4.70;78.70;;;;;;5128974;27;20039;-63
2022/01/20 11:57:05;;;;;;;13.70;1.85;;;4.60;78.70;;;;;;5129333;27;20043;-63
2022/01/20 11:59:43;;;;;;;19.08;2.72;;;4.90;78.80;;;;;;5128586;27;20419;-63
2022/01/20 12:02:11;;;;;;;21.48;3.92;;;5.00;77.80;;;;;;5108547;27;20461;-64
2022/01/20 12:04:39;;;;;;;16.17;3.70;;;5.10;78.10;;;;;;5128271;27;20046;-63
2022/01/20 12:07:08;;;;;;;19.10;2.17;;;5.20;77.60;;;;;;5128821;27;20043;-65
2022/01/20 12:09:39;;;;;;;19.65;4.82;;;5.20;77.50;;;;;;5128725;27;20118;-63
2022/01/20 12:12:18;;;;;;;18.17;2.35;;;5.10;78.10;;;;;;5127516;27;20051;-65
2022/01/20 12:14:45;;;;;;;14.77;2.20;;;4.80;78.70;;;;;;5124696;27;20043;-65
2022/01/20 12:17:14;;;;;;;14.57;4.68;;;4.80;79.20;;;;;;5122311;27;20046;-65
2022/01/20 12:19:46;;;;;;;15.75;2.92;;;4.70;79.40;;;;;;5128629;27;20056;-65
2022/01/20 12:22:11;;;;;;;13.13;3.38;;;4.70;79.00;;;;;;5123675;27;20134;-65
2022/01/20 12:24:37;;;;;;;19.05;3.13;;;4.70;79.40;;;;;;5128949;27;20130;-65
2022/01/20 12:27:24;;;;;;;27.75;3.20;;;4.80;79.30;;;;;;5129225;27;20067;-65
2022/01/20 12:29:50;;;;;;;12.45;2.38;;;4.80;79.50;;;;;;5121904;27;20035;-65
2022/01/20 12:32:19;;;;;;;12.68;2.70;;;4.80;80.00;;;;;;5129385;27;20087;-67
2022/01/20 12:34:58;;;;;;;9.40;1.90;;;4.60;81.40;;;;;;5129648;27;20035;-66
2022/01/20 12:37:39;;;;;;;7.72;1.70;;;4.20;81.90;;;;;;5128197;27;20118;-65
2022/01/20 12:40:18;;;;;;;12.52;2.60;;;3.80;82.60;;;;;;5127971;27;20035;-65
2022/01/20 12:42:44;;;;;;;12.40;1.83;;;3.60;83.00;;;;;;5128224;27;20647;-65
2022/01/20 12:48:14;;;;;;;14.95;1.83;;;3.40;85.70;;;;;;5128399;28;20081;-65
2022/01/20 12:50:50;;;;;;;12.18;1.95;;;3.60;84.20;;;;;;5107847;28;20053;-65
2022/01/20 12:53:17;;;;;;;14.65;4.97;;;3.50;84.00;;;;;;5093861;28;20060;-65
2022/01/20 12:55:53;;;;;;;11.57;2.50;;;3.50;84.30;;;;;;5100993;28;20047;-65
2022/01/20 12:58:19;;;;;;;14.98;2.72;;;3.60;84.10;;;;;;5108080;28;20407;-65
2022/01/20 13:00:44;;;;;;;18.08;3.00;;;3.70;83.80;;;;;;5127407;28;20042;-64
2022/01/20 13:03:10;;;;;;;16.95;2.83;;;4.00;83.40;;;;;;5126550;28;20042;-63
2022/01/20 13:05:41;;;;;;;16.33;3.50;;;4.20;83.50;;;;;;5102346;28;20058;-64
2022/01/20 13:08:07;;;;;;;10.63;2.63;;;4.50;83.20;;;;;;5109989;28;20465;-65
2022/01/20 13:10:34;;;;;;;18.10;3.35;;;4.60;83.20;;;;;;5125307;28;20130;-65
2022/01/20 13:13:05;;;;;;;19.85;3.30;;;4.80;81.90;;;;;;5089785;28;20087;-64
2022/01/20 13:15:31;;;;;;;17.52;2.40;;;4.90;80.50;;;;;;5125874;28;20108;-64
2022/01/20 13:18:15;;;;;;;16.65;2.22;;;4.90;79.50;;;;;;5089104;28;20052;-66
2022/01/20 13:20:52;;;;;;;12.68;3.03;;;5.00;78.60;;;;;;5122084;28;21210;-65
2022/01/20 13:25:46;;;;;;;23.20;2.60;;;4.80;77.30;;;;;;5126370;27;20039;-65
2022/01/20 13:28:14;;;;;;;14.13;1.90;;;4.90;77.70;;;;;;5128168;27;20054;-65
2022/01/20 13:30:50;;;;;;;9.95;2.22;;;4.80;77.70;;;;;;5124684;27;20039;-64
2022/01/20 13:33:22;;;;;;;13.43;3.15;;;4.90;78.00;;;;;;5108921;27;20679;-64
2022/01/20 13:35:55;;;;;;;16.00;2.72;;;4.90;77.60;;;;;;5132162;27;20031;-65
2022/01/20 13:38:20;;;;;;;16.27;2.00;;;5.10;77.20;;;;;;5133319;27;20043;-65
2022/01/20 13:40:47;;;;;;;13.75;3.17;;;5.30;76.80;;;;;;5132422;27;20045;-65
2022/01/20 13:46:04;;;;;;;9.02;1.67;;;5.10;77.00;;;;;;5120879;27;20043;-64
2022/01/20 13:48:34;;;;;;;6.63;0.82;;;5.10;76.90;;;;;;5127263;27;20547;-65
2022/01/20 13:51:03;;;;;;;10.15;1.38;;;4.90;77.30;;;;;;5132970;27;20043;-65
2022/01/20 13:53:31;;;;;;;10.20;1.38;;;5.10;76.30;;;;;;5113433;27;20489;-64
2022/01/20 13:56:02;;;;;;;11.38;2.90;;;5.00;76.50;;;;;;5126987;27;20055;-64
2022/01/20 13:58:30;;;;;;;7.40;1.55;;;4.90;77.10;;;;;;5096562;27;20154;-65
2022/01/20 14:00:57;;;;;;;12.13;1.80;;;4.90;77.20;;;;;;5123909;27;20116;-65
2022/01/20 14:03:24;;;;;;;15.05;1.85;;;4.80;77.40;;;;;;5131053;27;20043;-65
2022/01/20 14:05:52;;;;;;;16.83;2.00;;;5.00;77.50;;;;;;5129465;27;20038;-66
2022/01/20 14:08:18;;;;;;;9.77;1.52;;;4.90;78.20;;;;;;5132863;27;20051;-64